Terminal Aerodrome Forecast
Issued by NWS

Home | Current Version | Previous Version | Text Only | Print | Product List | Glossary On
Versions: 1 2 3 4 5 6 7 8 9 10 11 12 13 14
949
FTPA31 PHFO 280538
TAFHJR
TAF
PHJR 280538Z 2806/0106 07005KT P6SM VCSH SCT025 BKN045 BKN150
     FM282100 12009KT P6SM VCSH SCT025 BKN035 OVC100
     FM010500 VRB05KT 5SM -SHRA BR SCT015 BKN025 OVC050=

USA.gov is the U.S. government's official web portal to all federal, state and local government web resources and services.